sensor_id;sensor_type;location;lat;lon;timestamp;pressure;altitude;pressure_sealevel;temperature
60731;BMP280;46580;52.114;11.674;2024-02-21T00:00:52;-19470.88;;;9.10
60731;BMP280;46580;52.114;11.674;2024-02-21T00:03:17;-19471.31;;;9.11
60731;BMP280;46580;52.114;11.674;2024-02-21T00:05:43;-19471.19;;;9.11
60731;BMP280;46580;52.114;11.674;2024-02-21T00:08:08;-19471.47;;;9.12
60731;BMP280;46580;52.114;11.674;2024-02-21T00:10:33;-19471.91;;;9.13
60731;BMP280;46580;52.114;11.674;2024-02-21T00:13:00;-19472.03;;;9.14
60731;BMP280;46580;52.114;11.674;2024-02-21T00:15:26;-19471.47;;;9.12
60731;BMP280;46580;52.114;11.674;2024-02-21T00:17:51;-19471.31;;;9.11
60731;BMP280;46580;52.114;11.674;2024-02-21T00:20:17;-19470.31;;;9.08
60731;BMP280;46580;52.114;11.674;2024-02-21T00:22:45;-19469.47;;;9.05
60731;BMP280;46580;52.114;11.674;2024-02-21T00:25:10;-19468.03;;;9.00
60731;BMP280;46580;52.114;11.674;2024-02-21T00:27:36;-19466.31;;;8.94
60731;BMP280;46580;52.114;11.674;2024-02-21T00:30:02;-19464.16;;;8.87
60731;BMP280;46580;52.114;11.674;2024-02-21T00:32:28;-19462.88;;;8.83
60731;BMP280;46580;52.114;11.674;2024-02-21T00:34:53;-19463.00;;;8.83
60731;BMP280;46580;52.114;11.674;2024-02-21T00:37:18;-19462.31;;;8.81
60731;BMP280;46580;52.114;11.674;2024-02-21T00:39:44;-19460.59;;;8.75
60731;BMP280;46580;52.114;11.674;2024-02-21T00:42:09;-19459.16;;;8.70
60731;BMP280;46580;52.114;11.674;2024-02-21T00:44:44;-19458.00;;;8.66
60731;BMP280;46580;52.114;11.674;2024-02-21T00:47:10;-19458.44;;;8.68
60731;BMP280;46580;52.114;11.674;2024-02-21T00:49:35;-19458.72;;;8.69
60731;BMP280;46580;52.114;11.674;2024-02-21T00:52:01;-19456.84;;;8.62
60731;BMP280;46580;52.114;11.674;2024-02-21T00:54:26;-19457.44;;;8.64
60731;BMP280;46580;52.114;11.674;2024-02-21T00:56:51;-19458.00;;;8.66
60731;BMP280;46580;52.114;11.674;2024-02-21T00:59:18;-19457.28;;;8.64
60731;BMP280;46580;52.114;11.674;2024-02-21T01:01:43;-19457.44;;;8.64
60731;BMP280;46580;52.114;11.674;2024-02-21T01:04:11;-19455.72;;;8.58
60731;BMP280;46580;52.114;11.674;2024-02-21T01:06:37;-19455.41;;;8.57
60731;BMP280;46580;52.114;11.674;2024-02-21T01:09:02;-19456.13;;;8.60
60731;BMP280;46580;52.114;11.674;2024-02-21T01:11:28;-19455.41;;;8.57
60731;BMP280;46580;52.114;11.674;2024-02-21T01:13:55;-19454.56;;;8.54
60731;BMP280;46580;52.114;11.674;2024-02-21T01:16:20;-19454.56;;;8.54
60731;BMP280;46580;52.114;11.674;2024-02-21T01:18:49;-19454.28;;;8.54
60731;BMP280;46580;52.114;11.674;2024-02-21T01:21:14;-19454.72;;;8.55
60731;BMP280;46580;52.114;11.674;2024-02-21T01:23:39;-19453.69;;;8.52
60731;BMP280;46580;52.114;11.674;2024-02-21T01:26:05;-19450.56;;;8.41
60731;BMP280;46580;52.114;11.674;2024-02-21T01:28:33;-19451.97;;;8.46
60731;BMP280;46580;52.114;11.674;2024-02-21T01:30:59;-19450.56;;;8.41
60731;BMP280;46580;52.114;11.674;2024-02-21T01:33:24;-19450.28;;;8.40
60731;BMP280;46580;52.114;11.674;2024-02-21T01:35:49;-19450.97;;;8.42
60731;BMP280;46580;52.114;11.674;2024-02-21T01:38:15;-19449.69;;;8.38
60731;BMP280;46580;52.114;11.674;2024-02-21T01:40:41;-19449.69;;;8.38
60731;BMP280;46580;52.114;11.674;2024-02-21T01:43:16;-19449.97;;;8.39
60731;BMP280;46580;52.114;11.674;2024-02-21T01:45:42;-19449.69;;;8.38
60731;BMP280;46580;52.114;11.674;2024-02-21T01:48:07;-19448.69;;;8.35
60731;BMP280;46580;52.114;11.674;2024-02-21T01:50:33;-19447.97;;;8.32
60731;BMP280;46580;52.114;11.674;2024-02-21T01:52:59;-19446.97;;;8.29
60731;BMP280;46580;52.114;11.674;2024-02-21T01:55:24;-19447.84;;;8.32
60731;BMP280;46580;52.114;11.674;2024-02-21T01:57:50;-19448.97;;;8.35
60731;BMP280;46580;52.114;11.674;2024-02-21T02:00:16;-19449.41;;;8.37
60731;BMP280;46580;52.114;11.674;2024-02-21T02:02:45;-19451.25;;;8.43
60731;BMP280;46580;52.114;11.674;2024-02-21T02:05:11;-19453.69;;;8.52
60731;BMP280;46580;52.114;11.674;2024-02-21T02:07:36;-19451.41;;;8.44
60731;BMP280;46580;52.114;11.674;2024-02-21T02:10:02;-19451.69;;;8.45
60731;BMP280;46580;52.114;11.674;2024-02-21T02:12:27;-19450.84;;;8.42
60731;BMP280;46580;52.114;11.674;2024-02-21T02:15:00;-19449.97;;;8.39
60731;BMP280;46580;52.114;11.674;2024-02-21T02:17:26;-19450.56;;;8.41
60731;BMP280;46580;52.114;11.674;2024-02-21T02:19:54;-19451.97;;;8.46
60731;BMP280;46580;52.114;11.674;2024-02-21T02:22:23;-19454.13;;;8.53
60731;BMP280;46580;52.114;11.674;2024-02-21T02:24:50;-19456.00;;;8.59
60731;BMP280;46580;52.114;11.674;2024-02-21T02:27:16;-19457.28;;;8.64
60731;BMP280;46580;52.114;11.674;2024-02-21T02:29:41;-19458.56;;;8.68
60731;BMP280;46580;52.114;11.674;2024-02-21T02:32:06;-19458.56;;;8.68
60731;BMP280;46580;52.114;11.674;2024-02-21T02:34:32;-19459.16;;;8.70
60731;BMP280;46580;52.114;11.674;2024-02-21T02:36:57;-19459.16;;;8.70
60731;BMP280;46580;52.114;11.674;2024-02-21T02:39:23;-19459.72;;;8.72
60731;BMP280;46580;52.114;11.674;2024-02-21T02:41:48;-19460.72;;;8.75
60731;BMP280;46580;52.114;11.674;2024-02-21T02:44:13;-19460.72;;;8.75
60731;BMP280;46580;52.114;11.674;2024-02-21T02:46:42;-19461.28;;;8.77
60731;BMP280;46580;52.114;11.674;2024-02-21T02:49:07;-19460.59;;;8.75
60731;BMP280;46580;52.114;11.674;2024-02-21T02:51:33;-19461.44;;;8.78
60731;BMP280;46580;52.114;11.674;2024-02-21T02:53:58;-19460.28;;;8.74
60731;BMP280;46580;52.114;11.674;2024-02-21T02:56:23;-19460.16;;;8.73
60731;BMP280;46580;52.114;11.674;2024-02-21T02:58:49;-19461.72;;;8.79
60731;BMP280;46580;52.114;11.674;2024-02-21T03:01:14;-19460.00;;;8.73
60731;BMP280;46580;52.114;11.674;2024-02-21T03:03:40;-19458.88;;;8.69
60731;BMP280;46580;52.114;11.674;2024-02-21T03:06:05;-19458.28;;;8.67
60731;BMP280;46580;52.114;11.674;2024-02-21T03:08:31;-19458.16;;;8.67
60731;BMP280;46580;52.114;11.674;2024-02-21T03:10:58;-19459.16;;;8.70
60731;BMP280;46580;52.114;11.674;2024-02-21T03:13:24;-19459.72;;;8.72
60731;BMP280;46580;52.114;11.674;2024-02-21T03:15:50;-19459.56;;;8.72
60731;BMP280;46580;52.114;11.674;2024-02-21T03:18:15;-19459.88;;;8.73
60731;BMP280;46580;52.114;11.674;2024-02-21T03:20:41;-19459.16;;;8.70
60731;BMP280;46580;52.114;11.674;2024-02-21T03:23:06;-19458.72;;;8.69
60731;BMP280;46580;52.114;11.674;2024-02-21T03:25:34;-19458.56;;;8.68
60731;BMP280;46580;52.114;11.674;2024-02-21T03:28:00;-19459.00;;;8.70
60731;BMP280;46580;52.114;11.674;2024-02-21T03:30:28;-19459.72;;;8.72
60731;BMP280;46580;52.114;11.674;2024-02-21T03:32:53;-19459.00;;;8.70
60731;BMP280;46580;52.114;11.674;2024-02-21T03:35:19;-19459.56;;;8.72
60731;BMP280;46580;52.114;11.674;2024-02-21T03:37:45;-19458.72;;;8.69
60731;BMP280;46580;52.114;11.674;2024-02-21T03:40:11;-19458.56;;;8.68
60731;BMP280;46580;52.114;11.674;2024-02-21T03:42:37;-19459.88;;;8.73
60731;BMP280;46580;52.114;11.674;2024-02-21T03:45:03;-19460.00;;;8.73
60731;BMP280;46580;52.114;11.674;2024-02-21T03:47:29;-19459.44;;;8.71
60731;BMP280;46580;52.114;11.674;2024-02-21T03:49:54;-19460.00;;;8.73
60731;BMP280;46580;52.114;11.674;2024-02-21T03:52:20;-19460.00;;;8.73
60731;BMP280;46580;52.114;11.674;2024-02-21T03:54:45;-19460.59;;;8.75
60731;BMP280;46580;52.114;11.674;2024-02-21T03:57:11;-19460.72;;;8.75
60731;BMP280;46580;52.114;11.674;2024-02-21T03:59:36;-19460.28;;;8.74
60731;BMP280;46580;52.114;11.674;2024-02-21T04:02:05;-19460.28;;;8.74
60731;BMP280;46580;52.114;11.674;2024-02-21T04:04:34;-19460.28;;;8.74
60731;BMP280;46580;52.114;11.674;2024-02-21T04:07:01;-19460.88;;;8.76
60731;BMP280;46580;52.114;11.674;2024-02-21T04:09:31;-19460.88;;;8.76
60731;BMP280;46580;52.114;11.674;2024-02-21T04:11:57;-19459.72;;;8.72
60731;BMP280;46580;52.114;11.674;2024-02-21T04:14:22;-19459.00;;;8.70
60731;BMP280;46580;52.114;11.674;2024-02-21T04:16:47;-19459.16;;;8.70
60731;BMP280;46580;52.114;11.674;2024-02-21T04:19:12;-19459.88;;;8.73
60731;BMP280;46580;52.114;11.674;2024-02-21T04:21:38;-19459.16;;;8.70
60731;BMP280;46580;52.114;11.674;2024-02-21T04:24:03;-19460.00;;;8.73
60731;BMP280;46580;52.114;11.674;2024-02-21T04:26:30;-19460.00;;;8.73
60731;BMP280;46580;52.114;11.674;2024-02-21T04:28:56;-19460.16;;;8.73
60731;BMP280;46580;52.114;11.674;2024-02-21T04:31:24;-19460.59;;;8.75
60731;BMP280;46580;52.114;11.674;2024-02-21T04:33:53;-19460.00;;;8.73
60731;BMP280;46580;52.114;11.674;2024-02-21T04:36:18;-19460.72;;;8.75
60731;BMP280;46580;52.114;11.674;2024-02-21T04:38:44;-19460.16;;;8.73
60731;BMP280;46580;52.114;11.674;2024-02-21T04:41:12;-19461.00;;;8.76
60731;BMP280;46580;52.114;11.674;2024-02-21T04:43:38;-19461.16;;;8.77
60731;BMP280;46580;52.114;11.674;2024-02-21T04:46:04;-19461.44;;;8.78
60731;BMP280;46580;52.114;11.674;2024-02-21T04:48:30;-19462.88;;;8.83
60731;BMP280;46580;52.114;11.674;2024-02-21T04:50:55;-19464.88;;;8.90
60731;BMP280;46580;52.114;11.674;2024-02-21T04:53:21;-19466.03;;;8.93
60731;BMP280;46580;52.114;11.674;2024-02-21T04:55:47;-19466.03;;;8.93
60731;BMP280;46580;52.114;11.674;2024-02-21T04:58:12;-19466.88;;;8.96
60731;BMP280;46580;52.114;11.674;2024-02-21T05:00:37;-19466.59;;;8.95
60731;BMP280;46580;52.114;11.674;2024-02-21T05:03:03;-19466.31;;;8.94
60731;BMP280;46580;52.114;11.674;2024-02-21T05:05:28;-19464.59;;;8.89
60731;BMP280;46580;52.114;11.674;2024-02-21T05:07:54;-19464.88;;;8.90
60731;BMP280;46580;52.114;11.674;2024-02-21T05:10:19;-19464.00;;;8.87
60731;BMP280;46580;52.114;11.674;2024-02-21T05:12:45;-19462.31;;;8.81
60731;BMP280;46580;52.114;11.674;2024-02-21T05:15:11;-19460.88;;;8.76
60731;BMP280;46580;52.114;11.674;2024-02-21T05:17:36;-19460.88;;;8.76
60731;BMP280;46580;52.114;11.674;2024-02-21T05:20:02;-19461.16;;;8.77
60731;BMP280;46580;52.114;11.674;2024-02-21T05:22:27;-19461.16;;;8.77
60731;BMP280;46580;52.114;11.674;2024-02-21T05:24:52;-19461.59;;;8.78
60731;BMP280;46580;52.114;11.674;2024-02-21T05:27:18;-19461.16;;;8.77
60731;BMP280;46580;52.114;11.674;2024-02-21T05:29:43;-19461.00;;;8.76
60731;BMP280;46580;52.114;11.674;2024-02-21T05:32:09;-19460.59;;;8.75
60731;BMP280;46580;52.114;11.674;2024-02-21T05:34:35;-19461.00;;;8.76
60731;BMP280;46580;52.114;11.674;2024-02-21T05:37:00;-19459.56;;;8.72
60731;BMP280;46580;52.114;11.674;2024-02-21T05:39:26;-19460.72;;;8.75
60731;BMP280;46580;52.114;11.674;2024-02-21T05:41:51;-19460.59;;;8.75
60731;BMP280;46580;52.114;11.674;2024-02-21T05:44:18;-19460.16;;;8.73
60731;BMP280;46580;52.114;11.674;2024-02-21T05:46:43;-19460.59;;;8.75
60731;BMP280;46580;52.114;11.674;2024-02-21T05:49:12;-19460.00;;;8.73
60731;BMP280;46580;52.114;11.674;2024-02-21T05:51:37;-19460.00;;;8.73
60731;BMP280;46580;52.114;11.674;2024-02-21T05:54:03;-19459.16;;;8.70
60731;BMP280;46580;52.114;11.674;2024-02-21T05:56:28;-19459.00;;;8.70
60731;BMP280;46580;52.114;11.674;2024-02-21T05:58:54;-19459.16;;;8.70
60731;BMP280;46580;52.114;11.674;2024-02-21T06:01:22;-19461.44;;;8.78
60731;BMP280;46580;52.114;11.674;2024-02-21T06:03:50;-19463.31;;;8.84
60731;BMP280;46580;52.114;11.674;2024-02-21T06:06:19;-19464.00;;;8.87
60731;BMP280;46580;52.114;11.674;2024-02-21T06:08:46;-19466.03;;;8.93
60731;BMP280;46580;52.114;11.674;2024-02-21T06:11:14;-19467.75;;;8.99
60731;BMP280;46580;52.114;11.674;2024-02-21T06:13:40;-19468.59;;;9.02
60731;BMP280;46580;52.114;11.674;2024-02-21T06:16:13;-19469.47;;;9.05
60731;BMP280;46580;52.114;11.674;2024-02-21T06:18:39;-19467.75;;;8.99
60731;BMP280;46580;52.114;11.674;2024-02-21T06:21:07;-19465.16;;;8.91
60731;BMP280;46580;52.114;11.674;2024-02-21T06:23:36;-19463.72;;;8.86
60731;BMP280;46580;52.114;11.674;2024-02-21T06:26:02;-19463.00;;;8.83
60731;BMP280;46580;52.114;11.674;2024-02-21T06:28:33;-19462.59;;;8.82
60731;BMP280;46580;52.114;11.674;2024-02-21T06:31:17;-19462.59;;;8.82
60731;BMP280;46580;52.114;11.674;2024-02-21T06:33:43;-19463.16;;;8.84
60731;BMP280;46580;52.114;11.674;2024-02-21T06:36:11;-19463.31;;;8.84
60731;BMP280;46580;52.114;11.674;2024-02-21T06:38:40;-19463.59;;;8.85
60731;BMP280;46580;52.114;11.674;2024-02-21T06:41:05;-19463.88;;;8.86
60731;BMP280;46580;52.114;11.674;2024-02-21T06:43:33;-19462.72;;;8.82
60731;BMP280;46580;52.114;11.674;2024-02-21T06:45:59;-19461.72;;;8.79
60731;BMP280;46580;52.114;11.674;2024-02-21T06:48:27;-19461.88;;;8.79
60731;BMP280;46580;52.114;11.674;2024-02-21T06:50:52;-19461.16;;;8.77
60731;BMP280;46580;52.114;11.674;2024-02-21T06:53:23;-19460.88;;;8.76
60731;BMP280;46580;52.114;11.674;2024-02-21T06:55:48;-19462.16;;;8.80
60731;BMP280;46580;52.114;11.674;2024-02-21T06:58:16;-19463.72;;;8.86
60731;BMP280;46580;52.114;11.674;2024-02-21T07:00:42;-19464.44;;;8.88
60731;BMP280;46580;52.114;11.674;2024-02-21T07:03:08;-19466.16;;;8.94
60731;BMP280;46580;52.114;11.674;2024-02-21T07:05:33;-19467.88;;;9.00
60731;BMP280;46580;52.114;11.674;2024-02-21T07:07:59;-19466.88;;;8.96
60731;BMP280;46580;52.114;11.674;2024-02-21T07:10:25;-19467.03;;;8.97
60731;BMP280;46580;52.114;11.674;2024-02-21T07:12:50;-19468.75;;;9.03
60731;BMP280;46580;52.114;11.674;2024-02-21T07:15:17;-19468.88;;;9.03
60731;BMP280;46580;52.114;11.674;2024-02-21T07:17:42;-19470.03;;;9.07
60731;BMP280;46580;52.114;11.674;2024-02-21T07:20:08;-19471.03;;;9.10
60731;BMP280;46580;52.114;11.674;2024-02-21T07:22:34;-19470.88;;;9.10
60731;BMP280;46580;52.114;11.674;2024-02-21T07:24:59;-19473.19;;;9.18
60731;BMP280;46580;52.114;11.674;2024-02-21T07:27:24;-19474.19;;;9.21
60731;BMP280;46580;52.114;11.674;2024-02-21T07:29:53;-19474.75;;;9.23
60731;BMP280;46580;52.114;11.674;2024-02-21T07:32:19;-19475.31;;;9.25
60731;BMP280;46580;52.114;11.674;2024-02-21T07:34:44;-19476.63;;;9.29
60731;BMP280;46580;52.114;11.674;2024-02-21T07:37:10;-19478.91;;;9.37
60731;BMP280;46580;52.114;11.674;2024-02-21T07:39:36;-19481.50;;;9.46
60731;BMP280;46580;52.114;11.674;2024-02-21T07:42:02;-19482.19;;;9.48
60731;BMP280;46580;52.114;11.674;2024-02-21T07:44:28;-19483.19;;;9.52
60731;BMP280;46580;52.114;11.674;2024-02-21T07:46:53;-19484.50;;;9.56
60731;BMP280;46580;52.114;11.674;2024-02-21T07:49:18;-19485.78;;;9.61
60731;BMP280;46580;52.114;11.674;2024-02-21T07:51:44;-19487.66;;;9.67
60731;BMP280;46580;52.114;11.674;2024-02-21T07:54:09;-19488.34;;;9.69
60731;BMP280;46580;52.114;11.674;2024-02-21T07:56:35;-19488.22;;;9.69
60731;BMP280;46580;52.114;11.674;2024-02-21T07:59:00;-19487.78;;;9.67
60731;BMP280;46580;52.114;11.674;2024-02-21T08:01:26;-19489.50;;;9.73
60731;BMP280;46580;52.114;11.674;2024-02-21T08:03:51;-19489.50;;;9.73
60731;BMP280;46580;52.114;11.674;2024-02-21T08:06:16;-19489.94;;;9.75
60731;BMP280;46580;52.114;11.674;2024-02-21T08:08:42;-19491.09;;;9.79
60731;BMP280;46580;52.114;11.674;2024-02-21T08:11:07;-19491.38;;;9.80
60731;BMP280;46580;52.114;11.674;2024-02-21T08:13:33;-19492.38;;;9.83
60731;BMP280;46580;52.114;11.674;2024-02-21T08:15:58;-19493.22;;;9.86
60731;BMP280;46580;52.114;11.674;2024-02-21T08:18:23;-19493.50;;;9.87
60731;BMP280;46580;52.114;11.674;2024-02-21T08:20:49;-19494.22;;;9.89
60731;BMP280;46580;52.114;11.674;2024-02-21T08:23:18;-19494.94;;;9.92
60731;BMP280;46580;52.114;11.674;2024-02-21T08:25:44;-19495.38;;;9.93
60731;BMP280;46580;52.114;11.674;2024-02-21T08:28:10;-19496.09;;;9.96
60731;BMP280;46580;52.114;11.674;2024-02-21T08:30:38;-19495.38;;;9.93
60731;BMP280;46580;52.114;11.674;2024-02-21T08:33:03;-19494.09;;;9.89
60731;BMP280;46580;52.114;11.674;2024-02-21T08:35:29;-19494.22;;;9.89
60731;BMP280;46580;52.114;11.674;2024-02-21T08:37:54;-19494.09;;;9.89
60731;BMP280;46580;52.114;11.674;2024-02-21T08:40:20;-19494.94;;;9.92
60731;BMP280;46580;52.114;11.674;2024-02-21T08:42:47;-19494.66;;;9.91
60731;BMP280;46580;52.114;11.674;2024-02-21T08:45:12;-19494.94;;;9.92
60731;BMP280;46580;52.114;11.674;2024-02-21T08:47:44;-19494.81;;;9.91
60731;BMP280;46580;52.114;11.674;2024-02-21T08:50:10;-19494.94;;;9.92
60731;BMP280;46580;52.114;11.674;2024-02-21T08:52:36;-19496.38;;;9.97
60731;BMP280;46580;52.114;11.674;2024-02-21T08:55:01;-19497.25;;;10.00
60731;BMP280;46580;52.114;11.674;2024-02-21T08:57:27;-19501.53;;;10.14
60731;BMP280;46580;52.114;11.674;2024-02-21T08:59:53;-19504.09;;;10.23
60731;BMP280;46580;52.114;11.674;2024-02-21T09:02:18;-19505.81;;;10.29
60731;BMP280;46580;52.114;11.674;2024-02-21T09:04:44;-19505.97;;;10.29
60731;BMP280;46580;52.114;11.674;2024-02-21T09:07:10;-19506.69;;;10.32
60731;BMP280;46580;52.114;11.674;2024-02-21T09:09:39;-19505.25;;;10.27
60731;BMP280;46580;52.114;11.674;2024-02-21T09:12:08;-19507.53;;;10.35
60731;BMP280;46580;52.114;11.674;2024-02-21T09:14:35;-19507.53;;;10.35
60731;BMP280;46580;52.114;11.674;2024-02-21T09:17:01;-19507.81;;;10.36
60731;BMP280;46580;52.114;11.674;2024-02-21T09:19:29;-19507.81;;;10.36
60731;BMP280;46580;52.114;11.674;2024-02-21T09:21:54;-19507.41;;;10.34
60731;BMP280;46580;52.114;11.674;2024-02-21T09:24:20;-19508.53;;;10.38
60731;BMP280;46580;52.114;11.674;2024-02-21T09:26:49;-19511.25;;;10.47
60731;BMP280;46580;52.114;11.674;2024-02-21T09:29:15;-19513.13;;;10.54
60731;BMP280;46580;52.114;11.674;2024-02-21T09:31:41;-19512.69;;;10.52
60731;BMP280;46580;52.114;11.674;2024-02-21T09:34:10;-19513.13;;;10.54
60731;BMP280;46580;52.114;11.674;2024-02-21T09:36:36;-19512.69;;;10.52
60731;BMP280;46580;52.114;11.674;2024-02-21T09:39:01;-19511.13;;;10.47
60731;BMP280;46580;52.114;11.674;2024-02-21T09:41:30;-19514.97;;;10.60
60731;BMP280;46580;52.114;11.674;2024-02-21T09:43:55;-19517.69;;;10.69
60731;BMP280;46580;52.114;11.674;2024-02-21T09:46:50;-19523.28;;;10.88
60731;BMP280;46580;52.114;11.674;2024-02-21T09:49:30;-19523.84;;;10.90
60731;BMP280;46580;52.114;11.674;2024-02-21T09:52:05;-19523.13;;;10.88
60731;BMP280;46580;52.114;11.674;2024-02-21T09:54:33;-19522.13;;;10.84
60731;BMP280;46580;52.114;11.674;2024-02-21T09:57:00;-19522.28;;;10.85
60731;BMP280;46580;52.114;11.674;2024-02-21T09:59:27;-19523.56;;;10.89
60731;BMP280;46580;52.114;11.674;2024-02-21T10:01:56;-19525.84;;;10.97
60731;BMP280;46580;52.114;11.674;2024-02-21T10:04:21;-19527.44;;;11.02
60731;BMP280;46580;52.114;11.674;2024-02-21T10:06:47;-19528.84;;;11.07
60731;BMP280;46580;52.114;11.674;2024-02-21T10:09:31;-19530.16;;;11.12
60731;BMP280;46580;52.114;11.674;2024-02-21T10:12:07;-19537.00;;;11.35
60731;BMP280;46580;52.114;11.674;2024-02-21T10:14:33;-19541.16;;;11.49
60731;BMP280;46580;52.114;11.674;2024-02-21T10:17:01;-19537.59;;;11.37
60731;BMP280;46580;52.114;11.674;2024-02-21T10:19:28;-19540.88;;;11.48
60731;BMP280;46580;52.114;11.674;2024-02-21T10:22:03;-19539.16;;;11.42
60731;BMP280;46580;52.114;11.674;2024-02-21T10:24:30;-19540.44;;;11.47
60731;BMP280;46580;52.114;11.674;2024-02-21T10:27:04;-19539.31;;;11.43
60731;BMP280;46580;52.114;11.674;2024-02-21T10:29:32;-19544.31;;;11.60
60731;BMP280;46580;52.114;11.674;2024-02-21T10:32:08;-19545.59;;;11.64
60731;BMP280;46580;52.114;11.674;2024-02-21T10:34:35;-19547.59;;;11.71
60731;BMP280;46580;52.114;11.674;2024-02-21T10:37:02;-19547.59;;;11.71
60731;BMP280;46580;52.114;11.674;2024-02-21T10:39:29;-19551.44;;;11.84
60731;BMP280;46580;52.114;11.674;2024-02-21T10:41:59;-19555.03;;;11.96
60731;BMP280;46580;52.114;11.674;2024-02-21T10:44:28;-19555.88;;;11.99
60731;BMP280;46580;52.114;11.674;2024-02-21T10:46:55;-19560.16;;;12.14
60731;BMP280;46580;52.114;11.674;2024-02-21T10:49:25;-19564.88;;;12.30
60731;BMP280;46580;52.114;11.674;2024-02-21T10:51:55;-19570.31;;;12.48
60731;BMP280;46580;52.114;11.674;2024-02-21T10:57:19;-19566.88;;;12.37
60731;BMP280;46580;52.114;11.674;2024-02-21T10:59:48;-19558.31;;;12.07
60731;BMP280;46580;52.114;11.674;2024-02-21T11:02:14;-19555.75;;;11.99
60731;BMP280;46580;52.114;11.674;2024-02-21T11:04:43;-19551.44;;;11.84
60731;BMP280;46580;52.114;11.674;2024-02-21T11:07:09;-19555.88;;;11.99
60731;BMP280;46580;52.114;11.674;2024-02-21T11:09:35;-19555.88;;;11.99
60731;BMP280;46580;52.114;11.674;2024-02-21T11:12:05;-19560.88;;;12.16
60731;BMP280;46580;52.114;11.674;2024-02-21T11:14:31;-19565.59;;;12.32
60731;BMP280;46580;52.114;11.674;2024-02-21T11:17:18;-19565.88;;;12.33
60731;BMP280;46580;52.114;11.674;2024-02-21T11:19:43;-19563.75;;;12.26
60731;BMP280;46580;52.114;11.674;2024-02-21T11:22:16;-19559.88;;;12.13
60731;BMP280;46580;52.114;11.674;2024-02-21T11:24:44;-19558.44;;;12.08
60731;BMP280;46580;52.114;11.674;2024-02-21T11:27:14;-19560.75;;;12.16
60731;BMP280;46580;52.114;11.674;2024-02-21T11:29:44;-19562.16;;;12.21
60731;BMP280;46580;52.114;11.674;2024-02-21T11:32:10;-19558.75;;;12.09
60731;BMP280;46580;52.114;11.674;2024-02-21T11:34:37;-19557.31;;;12.04
60731;BMP280;46580;52.114;11.674;2024-02-21T11:37:13;-19555.88;;;11.99
60731;BMP280;46580;52.114;11.674;2024-02-21T11:39:40;-19554.75;;;11.95
60731;BMP280;46580;52.114;11.674;2024-02-21T11:42:07;-19558.44;;;12.08
60731;BMP280;46580;52.114;11.674;2024-02-21T11:44:36;-19556.44;;;12.01
60731;BMP280;46580;52.114;11.674;2024-02-21T11:47:06;-19557.03;;;12.03
60731;BMP280;46580;52.114;11.674;2024-02-21T11:49:38;-19554.03;;;11.93
60731;BMP280;46580;52.114;11.674;2024-02-21T11:52:07;-19561.88;;;12.20
60731;BMP280;46580;52.114;11.674;2024-02-21T11:54:34;-19560.31;;;12.14
60731;BMP280;46580;52.114;11.674;2024-02-21T11:57:00;-19559.59;;;12.12
60731;BMP280;46580;52.114;11.674;2024-02-21T11:59:26;-19564.16;;;12.27
60731;BMP280;46580;52.114;11.674;2024-02-21T12:01:52;-19565.59;;;12.32
60731;BMP280;46580;52.114;11.674;2024-02-21T12:04:22;-19566.88;;;12.37
60731;BMP280;46580;52.114;11.674;2024-02-21T12:06:49;-19565.03;;;12.30
60731;BMP280;46580;52.114;11.674;2024-02-21T12:09:15;-19561.88;;;12.20
60731;BMP280;46580;52.114;11.674;2024-02-21T12:11:44;-19563.88;;;12.26
60731;BMP280;46580;52.114;11.674;2024-02-21T12:14:10;-19566.59;;;12.36
60731;BMP280;46580;52.114;11.674;2024-02-21T12:16:36;-19570.59;;;12.49
60731;BMP280;46580;52.114;11.674;2024-02-21T12:19:05;-19571.59;;;12.53
60731;BMP280;46580;52.114;11.674;2024-02-21T12:21:32;-19570.16;;;12.48
60731;BMP280;46580;52.114;11.674;2024-02-21T12:23:58;-19562.16;;;12.21
60731;BMP280;46580;52.114;11.674;2024-02-21T12:26:25;-19560.59;;;12.15
60731;BMP280;46580;52.114;11.674;2024-02-21T12:28:52;-19560.31;;;12.14
60731;BMP280;46580;52.114;11.674;2024-02-21T12:31:18;-19565.31;;;12.31
60731;BMP280;46580;52.114;11.674;2024-02-21T12:33:44;-19573.47;;;12.59
60731;BMP280;46580;52.114;11.674;2024-02-21T12:36:09;-19578.91;;;12.78
60731;BMP280;46580;52.114;11.674;2024-02-21T12:38:36;-19575.31;;;12.65
60731;BMP280;46580;52.114;11.674;2024-02-21T12:41:04;-19573.19;;;12.58
60731;BMP280;46580;52.114;11.674;2024-02-21T12:43:32;-19567.47;;;12.39
60731;BMP280;46580;52.114;11.674;2024-02-21T12:45:59;-19562.47;;;12.22
60731;BMP280;46580;52.114;11.674;2024-02-21T12:48:25;-19565.88;;;12.33
60731;BMP280;46580;52.114;11.674;2024-02-21T12:50:56;-19564.31;;;12.28
60731;BMP280;46580;52.114;11.674;2024-02-21T12:53:22;-19567.75;;;12.40
60731;BMP280;46580;52.114;11.674;2024-02-21T12:55:50;-19568.16;;;12.41
60731;BMP280;46580;52.114;11.674;2024-02-21T12:58:16;-19563.88;;;12.26
60731;BMP280;46580;52.114;11.674;2024-02-21T13:00:47;-19562.75;;;12.23
60731;BMP280;46580;52.114;11.674;2024-02-21T13:03:14;-19563.03;;;12.24
60731;BMP280;46580;52.114;11.674;2024-02-21T13:05:41;-19561.31;;;12.18
60731;BMP280;46580;52.114;11.674;2024-02-21T13:08:09;-19565.03;;;12.30
60731;BMP280;46580;52.114;11.674;2024-02-21T13:10:35;-19571.03;;;12.51
60731;BMP280;46580;52.114;11.674;2024-02-21T13:13:03;-19572.16;;;12.55
60731;BMP280;46580;52.114;11.674;2024-02-21T13:15:29;-19568.47;;;12.42
60731;BMP280;46580;52.114;11.674;2024-02-21T13:17:58;-19566.59;;;12.36
60731;BMP280;46580;52.114;11.674;2024-02-21T13:20:25;-19567.88;;;12.40
60731;BMP280;46580;52.114;11.674;2024-02-21T13:22:51;-19567.59;;;12.39
60731;BMP280;46580;52.114;11.674;2024-02-21T13:25:16;-19567.88;;;12.40
60731;BMP280;46580;52.114;11.674;2024-02-21T13:27:45;-19561.59;;;12.19
60731;BMP280;46580;52.114;11.674;2024-02-21T13:30:11;-19557.03;;;12.03
60731;BMP280;46580;52.114;11.674;2024-02-21T13:32:37;-19556.31;;;12.01
60731;BMP280;46580;52.114;11.674;2024-02-21T13:35:06;-19558.44;;;12.08
60731;BMP280;46580;52.114;11.674;2024-02-21T13:37:31;-19562.88;;;12.23
60731;BMP280;46580;52.114;11.674;2024-02-21T13:39:57;-19565.16;;;12.31
60731;BMP280;46580;52.114;11.674;2024-02-21T13:42:22;-19567.03;;;12.37
60731;BMP280;46580;52.114;11.674;2024-02-21T13:44:50;-19568.16;;;12.41
60731;BMP280;46580;52.114;11.674;2024-02-21T13:47:16;-19566.88;;;12.37
60731;BMP280;46580;52.114;11.674;2024-02-21T13:49:41;-19566.47;;;12.35
60731;BMP280;46580;52.114;11.674;2024-02-21T13:52:07;-19567.03;;;12.37